メインページ
METAR-TAF:

METAR-TAF

空港 :

カイエンヌ・フェリックス・エブエ国際空港

カイエンヌ, フランス領ギアナ

緯度: 04-50N, 経度: 052-22W, 海抜: 105m

現時点の気象観測

当レポートは25分前の06:00(UTC)に作成
無風
気温 24°C
湿度 94%
気圧 1008 hPa
視程10km以上
1,500メートル以下は雲なし、積乱雲なし

METAR: SOCA 200600Z AUTO 00000KT CAVOK 24/23 Q1008 NOSIG

時間: 03:25 (06:25 UTC)

予報

当レポートは1時間25分前の05:00(UTC)に作成
予報は20日の 06時(UTC)から 21日の 06時(UTC)まで有効
変向風 2kt
視程10km以上
高度2000ftの雲はほとんどない
20日の 1400時(UTC)から
東/北東の風 10kt
視程10km以上
高度3500ftの雲は散在している
確率 30% :
20日の 18時(UTC)から 20日の 21時(UTC)まで一時的に
視程: 3000m
高度1500ftの雲はほとんどない, 塔状積雲.
にわか雨
20日の 2300時(UTC)から
変向風 2kt
視程10km以上
高度2000ftの雲はほとんどない

TAF: SOCA 200500Z 2006/2106 VRB02KT 9999 FEW020 FM201400 07010KT 9999 SCT035 PROB30 TEMPO 2018/2021 3000 SHRA FEW015TCU FM202300 VRB02KT 9999 FEW020

4,000以上の空港の気象観測と天気予報(METAR報とTAF報)

利用可能な観測所は地図上に黄色い丸と赤い丸で示す。

丸の上にカーソルを重ねると観測所名を参照できる。

次にクリックすると気象観測と天気予報を参照できる。

マップの切り替え:黒色「×」印の緑ボタンをクリックして拡大、「-」印の緑ボタンをクリックして縮小、緑色の三角印をクリックして隣りの地図に切り替え


METAR-TAF: